createdAt,value
2019-02-27T00:01:17.583Z,94.97
2019-02-27T00:03:43.853Z,95.17
2019-02-27T00:06:09.861Z,95.68
2019-02-27T00:08:36.056Z,95.72
2019-02-27T00:11:02.375Z,95.80
2019-02-27T00:13:28.538Z,95.14
2019-02-27T00:15:54.911Z,94.93
2019-02-27T00:18:23.783Z,94.70
2019-02-27T00:20:48.924Z,94.70
2019-02-27T00:23:14.962Z,94.91
2019-02-27T00:25:41.016Z,94.63
2019-02-27T00:28:07.065Z,93.91
2019-02-27T00:30:33.207Z,93.41
2019-02-27T00:32:59.270Z,93.78
2019-02-27T00:35:25.339Z,94.80
2019-02-27T00:37:52.618Z,94.96
2019-02-27T00:40:18.862Z,94.37
2019-02-27T00:42:44.908Z,93.63
2019-02-27T00:45:10.926Z,93.26
2019-02-27T00:47:37.115Z,93.81
2019-02-27T00:50:06.550Z,93.64
2019-02-27T00:52:32.895Z,93.05
2019-02-27T00:54:58.951Z,92.53
2019-02-27T00:57:24.962Z,92.35
2019-02-27T00:59:51.009Z,92.48
2019-02-27T01:02:19.952Z,93.52
2019-02-27T01:04:45.057Z,93.22
2019-02-27T01:07:11.715Z,93.34
2019-02-27T01:09:39.548Z,93.48
2019-02-27T01:12:05.712Z,93.05
2019-02-27T01:14:31.836Z,93.19
2019-02-27T01:16:57.958Z,93.16
2019-02-27T01:19:23.989Z,93.22
2019-02-27T01:21:50.066Z,93.29
2019-02-27T01:24:17.412Z,94.34
2019-02-27T01:26:44.082Z,94.06
2019-02-27T01:29:10.234Z,94.12
2019-02-27T01:31:36.254Z,94.00
2019-02-27T01:34:02.367Z,93.88
2019-02-27T01:36:28.390Z,94.35
2019-02-27T01:38:54.527Z,94.61
2019-02-27T01:41:24.350Z,94.32
2019-02-27T01:43:48.503Z,94.65
2019-02-27T01:46:14.578Z,94.80
2019-02-27T01:49:00.490Z,94.86
2019-02-27T01:51:28.183Z,95.07
2019-02-27T01:53:54.515Z,94.96
2019-02-27T01:56:20.662Z,94.96
2019-02-27T01:58:46.817Z,94.68
2019-02-27T02:01:20.878Z,94.34
2019-02-27T02:03:47.609Z,94.66
2019-02-27T02:06:14.267Z,94.86
2019-02-27T02:08:40.357Z,95.09
2019-02-27T02:11:06.697Z,95.32
2019-02-27T02:13:48.807Z,94.88
2019-02-27T02:16:21.650Z,94.43
2019-02-27T02:19:24.945Z,94.62
2019-02-27T02:21:57.723Z,94.49
2019-02-27T02:24:46.887Z,94.57
2019-02-27T02:27:24.235Z,94.50
2019-02-27T02:30:30.006Z,94.38
2019-02-27T02:33:12.571Z,94.59
2019-02-27T02:35:50.693Z,94.06
2019-02-27T02:38:55.223Z,94.30
2019-02-27T02:41:46.274Z,93.92
2019-02-27T02:44:30.385Z,93.85
2019-02-27T02:47:03.424Z,93.62
2019-02-27T02:49:42.512Z,93.43
2019-02-27T02:52:26.914Z,93.15
2019-02-27T02:55:13.823Z,92.63
2019-02-27T02:58:07.986Z,92.34
2019-02-27T03:00:43.021Z,91.87
2019-02-27T03:03:19.386Z,91.62
2019-02-27T03:06:09.331Z,91.58
2019-02-27T03:08:56.383Z,91.13
2019-02-27T03:11:35.110Z,90.84
2019-02-27T03:14:38.836Z,90.20
2019-02-27T03:17:17.902Z,89.51
2019-02-27T03:19:46.358Z,88.68
2019-02-27T03:22:32.390Z,88.47
2019-02-27T03:25:04.219Z,89.95
2019-02-27T03:27:46.588Z,89.58
2019-02-27T03:30:36.868Z,89.65
2019-02-27T03:33:23.200Z,88.90
2019-02-27T03:36:03.339Z,88.58
2019-02-27T03:39:00.239Z,88.46
2019-02-27T03:41:36.977Z,89.17
2019-02-27T03:44:20.735Z,89.13
2019-02-27T03:46:54.961Z,89.08
2019-02-27T03:49:30.700Z,87.94
2019-02-27T03:52:18.326Z,87.75
2019-02-27T03:54:58.032Z,87.53
2019-02-27T03:57:39.513Z,87.23
2019-02-27T04:00:18.068Z,87.26
2019-02-27T04:02:56.631Z,87.48
2019-02-27T04:05:46.257Z,86.80
2019-02-27T04:08:32.969Z,85.30
2019-02-27T04:10:59.161Z,85.52
2019-02-27T04:13:27.765Z,85.40
2019-02-27T04:15:54.387Z,84.08
2019-02-27T04:18:20.653Z,84.54
2019-02-27T04:20:50.161Z,84.12
2019-02-27T04:23:14.916Z,83.95
2019-02-27T04:25:41.389Z,84.49
2019-02-27T04:28:07.509Z,84.89
2019-02-27T04:30:33.869Z,85.25
2019-02-27T04:32:59.887Z,85.50
2019-02-27T04:35:26.575Z,85.34
2019-02-27T04:37:54.410Z,85.43
2019-02-27T04:40:21.014Z,86.39
2019-02-27T04:42:49.090Z,86.53
2019-02-27T04:45:15.112Z,86.48
2019-02-27T04:47:41.134Z,86.67
2019-02-27T04:50:10.905Z,86.66
2019-02-27T04:52:35.514Z,86.91
2019-02-27T04:55:01.551Z,87.40
2019-02-27T04:57:28.102Z,87.26
2019-02-27T04:59:54.332Z,87.21
2019-02-27T05:02:20.449Z,87.34
2019-02-27T05:04:46.870Z,87.15
2019-02-27T05:07:12.900Z,86.83
2019-02-27T05:09:38.945Z,86.78
2019-02-27T05:12:05.076Z,86.40
2019-02-27T05:14:31.226Z,86.91
2019-02-27T05:16:57.404Z,87.62
2019-02-27T05:19:25.288Z,87.11
2019-02-27T05:21:52.449Z,86.99
2019-02-27T05:24:19.280Z,87.04
2019-02-27T05:26:45.354Z,86.99
2019-02-27T05:29:11.415Z,87.28
2019-02-27T05:31:40.730Z,87.27
2019-02-27T05:34:06.929Z,87.62
2019-02-27T05:36:33.895Z,87.92
2019-02-27T05:39:00.115Z,87.65
2019-02-27T05:41:26.215Z,87.21
2019-02-27T05:43:54.458Z,86.40
2019-02-27T05:46:20.551Z,86.14
2019-02-27T05:48:46.571Z,86.61
2019-02-27T05:51:12.633Z,86.88
2019-02-27T05:53:38.713Z,86.48
2019-02-27T05:56:04.810Z,86.36
2019-02-27T05:58:31.244Z,86.30
2019-02-27T06:00:57.741Z,86.69
2019-02-27T06:03:41.545Z,86.67
2019-02-27T06:06:11.488Z,86.33
2019-02-27T06:08:38.068Z,86.13
2019-02-27T06:11:03.997Z,86.04
2019-02-27T06:13:30.122Z,85.60
2019-02-27T06:15:56.211Z,85.07
2019-02-27T06:18:23.657Z,85.61
2019-02-27T06:20:51.807Z,86.25
2019-02-27T06:23:18.048Z,85.89
2019-02-27T06:25:44.182Z,85.79
2019-02-27T06:28:23.601Z,85.95
2019-02-27T06:30:49.681Z,85.53
2019-02-27T06:33:17.827Z,85.66
2019-02-27T06:35:43.928Z,85.24
2019-02-27T06:38:10.263Z,84.75
2019-02-27T06:40:36.761Z,84.47
2019-02-27T06:43:03.018Z,84.60
2019-02-27T06:45:29.364Z,83.38
2019-02-27T06:47:55.417Z,84.02
2019-02-27T06:50:25.274Z,83.47
2019-02-27T06:52:49.613Z,82.54
2019-02-27T06:55:15.800Z,82.28
2019-02-27T06:57:42.353Z,82.14
2019-02-27T07:00:19.812Z,80.48
2019-02-27T07:02:46.063Z,79.83
2019-02-27T07:05:13.599Z,79.29
2019-02-27T07:07:40.472Z,78.71
2019-02-27T07:10:09.675Z,79.33
2019-02-27T07:12:35.810Z,78.84
2019-02-27T07:15:02.628Z,78.74
2019-02-27T07:17:29.230Z,80.51
2019-02-27T07:19:59.084Z,78.63
2019-02-27T07:22:29.330Z,78.20
2019-02-27T07:24:53.149Z,78.14
2019-02-27T07:27:19.584Z,77.30
2019-02-27T07:29:45.714Z,74.41
2019-02-27T07:32:11.829Z,72.95
2019-02-27T07:34:38.416Z,71.42
2019-02-27T07:37:04.662Z,70.13
2019-02-27T07:39:32.856Z,69.63
2019-02-27T07:41:59.294Z,68.46
2019-02-27T07:44:25.480Z,67.62
2019-02-27T07:46:51.691Z,66.54
2019-02-27T07:49:17.754Z,65.52
2019-02-27T07:51:44.772Z,64.99
2019-02-27T07:54:10.904Z,64.59
2019-02-27T07:56:36.932Z,63.06
2019-02-27T07:59:03.068Z,63.03
2019-02-27T08:01:29.168Z,62.16
2019-02-27T08:03:55.320Z,62.46
2019-02-27T08:06:23.469Z,61.97
2019-02-27T08:08:49.303Z,62.25
2019-02-27T08:11:15.373Z,61.30
2019-02-27T08:13:41.515Z,61.04
2019-02-27T08:16:07.586Z,61.28
2019-02-27T08:18:36.601Z,60.89
2019-02-27T08:21:01.584Z,60.47
2019-02-27T08:23:27.760Z,59.23
2019-02-27T08:25:53.808Z,58.69
2019-02-27T08:28:20.977Z,59.37
2019-02-27T08:30:47.083Z,58.99
2019-02-27T08:33:15.140Z,58.50
2019-02-27T08:35:41.084Z,57.80
2019-02-27T08:38:07.207Z,57.49
2019-02-27T08:40:33.350Z,55.98
2019-02-27T08:42:59.355Z,54.82
2019-02-27T08:45:27.128Z,53.85
2019-02-27T08:47:54.162Z,53.67
2019-02-27T08:50:22.757Z,54.29
2019-02-27T08:52:51.530Z,54.28
2019-02-27T08:55:20.026Z,51.64
2019-02-27T08:57:45.947Z,50.10
2019-02-27T09:00:17.168Z,49.52
2019-02-27T09:02:43.388Z,47.50
2019-02-27T09:05:09.560Z,45.36
2019-02-27T09:07:36.475Z,44.68
2019-02-27T09:10:09.345Z,45.04
2019-02-27T09:12:35.434Z,44.21
2019-02-27T09:15:01.751Z,41.67
2019-02-27T09:17:27.926Z,40.17
2019-02-27T09:19:54.290Z,39.92
2019-02-27T09:22:20.413Z,39.82
2019-02-27T09:24:46.602Z,36.49
2019-02-27T09:27:12.743Z,35.07
2019-02-27T09:29:38.857Z,32.75
2019-02-27T09:32:05.026Z,31.55
2019-02-27T09:34:31.163Z,29.82
2019-02-27T09:36:57.455Z,32.19
2019-02-27T09:39:23.611Z,29.61
2019-02-27T09:41:51.252Z,32.99
2019-02-27T09:44:17.526Z,29.54
2019-02-27T09:46:43.702Z,29.42
2019-02-27T09:49:09.851Z,28.85
2019-02-27T09:51:35.942Z,27.70
2019-02-27T09:54:02.000Z,26.32
2019-02-27T09:56:29.107Z,24.96
2019-02-27T09:58:55.892Z,25.38
2019-02-27T10:01:21.929Z,25.57
2019-02-27T10:03:48.045Z,24.56
2019-02-27T10:06:14.335Z,23.91
2019-02-27T10:08:40.501Z,22.40
2019-02-27T10:11:06.954Z,21.71
2019-02-27T10:13:35.538Z,21.18
2019-02-27T10:16:01.731Z,20.30
2019-02-27T10:18:29.213Z,20.04
2019-02-27T10:20:55.306Z,18.65
2019-02-27T10:23:21.978Z,19.23
2019-02-27T10:25:49.843Z,18.78
2019-02-27T10:28:16.077Z,18.02
2019-02-27T10:30:42.200Z,17.62
2019-02-27T10:33:11.194Z,16.54
2019-02-27T10:35:38.401Z,17.27
2019-02-27T10:38:04.872Z,17.38
2019-02-27T10:40:31.000Z,16.76
2019-02-27T10:42:57.178Z,16.20
2019-02-27T10:45:23.495Z,16.69
2019-02-27T10:47:49.997Z,15.72
2019-02-27T10:50:16.237Z,15.85
2019-02-27T10:52:42.533Z,14.86
2019-02-27T10:55:16.836Z,14.55
2019-02-27T10:57:42.995Z,14.52
2019-02-27T11:00:13.172Z,15.67
2019-02-27T11:02:39.542Z,15.61
2019-02-27T11:05:06.635Z,14.89
2019-02-27T11:07:32.734Z,16.08
2019-02-27T11:09:58.863Z,15.80
2019-02-27T11:12:26.904Z,16.30
2019-02-27T11:14:53.141Z,16.56
2019-02-27T11:17:20.342Z,16.98
2019-02-27T11:19:46.970Z,16.88
2019-02-27T11:22:13.203Z,18.56
2019-02-27T11:24:39.342Z,17.20
2019-02-27T11:27:06.081Z,18.22
2019-02-27T11:29:33.151Z,17.73
2019-02-27T11:32:00.713Z,18.57
2019-02-27T11:34:26.921Z,19.95
2019-02-27T11:36:53.351Z,20.14
2019-02-27T11:39:19.955Z,20.58
2019-02-27T11:41:48.373Z,20.91
2019-02-27T11:44:14.941Z,21.68
2019-02-27T11:46:41.235Z,22.14
2019-02-27T11:49:07.581Z,22.14
2019-02-27T11:51:33.910Z,22.94
2019-02-27T11:54:00.186Z,22.05
2019-02-27T11:56:26.418Z,22.98
2019-02-27T11:58:55.436Z,22.51
2019-02-27T12:01:22.121Z,22.68
2019-02-27T12:03:48.981Z,24.28
2019-02-27T12:06:15.311Z,23.84
2019-02-27T12:08:41.558Z,23.87
2019-02-27T12:11:09.711Z,25.13
2019-02-27T12:13:35.742Z,25.37
2019-02-27T12:16:02.174Z,25.69
2019-02-27T12:18:28.231Z,25.91
2019-02-27T12:20:54.598Z,26.79
2019-02-27T12:23:20.781Z,26.11
2019-02-27T12:25:47.311Z,25.40
2019-02-27T12:28:15.184Z,27.15
2019-02-27T12:30:41.408Z,27.36
2019-02-27T12:33:07.718Z,26.39
2019-02-27T12:35:34.973Z,26.33
2019-02-27T12:38:01.325Z,26.38
2019-02-27T12:40:27.639Z,27.28
2019-02-27T12:42:54.188Z,26.74
2019-02-27T12:45:26.841Z,27.26
2019-02-27T12:47:54.100Z,27.34
2019-02-27T12:50:21.457Z,27.64
2019-02-27T12:52:48.276Z,26.92
2019-02-27T12:55:15.665Z,28.00
2019-02-27T12:57:42.005Z,27.76
2019-02-27T13:00:11.803Z,28.08
2019-02-27T13:02:39.788Z,28.11
2019-02-27T13:05:10.270Z,28.44
2019-02-27T13:07:36.430Z,28.94
2019-02-27T13:10:24.484Z,30.31
2019-02-27T13:12:51.946Z,31.02
2019-02-27T13:15:25.759Z,31.70
2019-02-27T13:17:56.542Z,31.98
2019-02-27T13:20:29.041Z,32.40
2019-02-27T13:22:55.289Z,32.07
2019-02-27T13:25:23.837Z,32.01
2019-02-27T13:27:49.396Z,32.94
2019-02-27T13:30:18.908Z,33.48
2019-02-27T13:32:45.086Z,33.31
2019-02-27T13:35:12.374Z,33.29
2019-02-27T13:37:38.402Z,33.78
2019-02-27T13:40:11.453Z,33.97
2019-02-27T13:42:37.693Z,33.92
2019-02-27T13:45:12.626Z,34.52
2019-02-27T13:47:35.972Z,34.21
2019-02-27T13:50:04.062Z,33.90
2019-02-27T13:52:30.516Z,34.36
2019-02-27T13:54:56.605Z,33.94
2019-02-27T13:57:25.713Z,33.36
2019-02-27T13:59:51.047Z,32.46
2019-02-27T14:02:17.349Z,32.74
2019-02-27T14:04:43.634Z,32.46
2019-02-27T14:07:10.036Z,32.21
2019-02-27T14:09:41.507Z,31.94
2019-02-27T14:12:08.340Z,37.60
2019-02-27T14:14:35.792Z,34.43
2019-02-27T14:17:01.925Z,32.46
2019-02-27T14:19:28.425Z,32.60
2019-02-27T14:21:56.090Z,33.10
2019-02-27T14:24:22.693Z,31.79
2019-02-27T14:26:48.963Z,32.59
2019-02-27T14:29:15.116Z,32.43
2019-02-27T14:31:43.401Z,34.38
2019-02-27T14:34:09.256Z,31.30
2019-02-27T14:36:35.541Z,32.85
2019-02-27T14:39:04.167Z,32.45
2019-02-27T14:41:32.444Z,31.88
2019-02-27T14:43:58.644Z,31.69
2019-02-27T14:46:24.937Z,31.77
2019-02-27T14:48:52.423Z,31.50
2019-02-27T14:51:19.417Z,32.23
2019-02-27T14:53:45.442Z,32.65
2019-02-27T14:56:11.489Z,31.59
2019-02-27T14:58:38.109Z,32.47
2019-02-27T15:01:05.970Z,32.64
2019-02-27T15:03:31.995Z,32.69
2019-02-27T15:05:58.145Z,33.60
2019-02-27T15:08:25.214Z,32.70
2019-02-27T15:10:52.173Z,32.73
2019-02-27T15:13:18.285Z,32.52
2019-02-27T15:15:45.277Z,31.66
2019-02-27T15:18:11.501Z,32.11
2019-02-27T15:20:40.422Z,31.82
2019-02-27T15:23:05.633Z,31.98
2019-02-27T15:25:32.074Z,32.04
2019-02-27T15:27:59.923Z,32.19
2019-02-27T15:30:30.223Z,32.31
2019-02-27T15:32:56.451Z,31.94
2019-02-27T15:35:22.651Z,32.48
2019-02-27T15:37:49.276Z,32.75
2019-02-27T15:40:20.662Z,32.65
2019-02-27T15:42:46.856Z,33.06
2019-02-27T15:45:17.982Z,33.08
2019-02-27T15:47:44.690Z,33.60
2019-02-27T15:50:16.435Z,33.46
2019-02-27T15:52:42.749Z,33.93
2019-02-27T15:55:10.917Z,34.16
2019-02-27T15:57:37.115Z,33.99
2019-02-27T16:00:07.059Z,34.79
2019-02-27T16:02:34.056Z,35.10
2019-02-27T16:05:01.804Z,35.51
2019-02-27T16:07:27.999Z,35.76
2019-02-27T16:09:54.111Z,35.86
2019-02-27T16:12:20.125Z,36.00
2019-02-27T16:14:47.951Z,36.32
2019-02-27T16:17:14.313Z,36.37
2019-02-27T16:19:42.117Z,36.81
2019-02-27T16:22:08.431Z,37.46
2019-02-27T16:24:34.453Z,37.84
2019-02-27T16:27:01.387Z,38.19
2019-02-27T16:29:28.220Z,38.75
2019-02-27T16:31:54.654Z,38.78
2019-02-27T16:34:20.778Z,38.82
2019-02-27T16:36:47.059Z,39.32
2019-02-27T16:39:13.855Z,39.87
2019-02-27T16:41:40.006Z,40.39
2019-02-27T16:44:06.292Z,40.83
2019-02-27T16:46:32.512Z,41.07
2019-02-27T16:48:58.617Z,41.25
2019-02-27T16:51:26.896Z,40.76
2019-02-27T16:53:53.226Z,40.73
2019-02-27T16:56:19.423Z,40.77
2019-02-27T16:58:45.457Z,40.96
2019-02-27T17:01:11.580Z,41.33
2019-02-27T17:03:38.160Z,41.14
2019-02-27T17:06:04.207Z,41.31
2019-02-27T17:08:32.998Z,41.02
2019-02-27T17:10:59.762Z,40.60
2019-02-27T17:13:26.453Z,40.41
2019-02-27T17:15:52.613Z,40.73
2019-02-27T17:18:18.830Z,41.25
2019-02-27T17:20:46.565Z,41.04
2019-02-27T17:23:12.966Z,39.99
2019-02-27T17:25:39.070Z,39.96
2019-02-27T17:28:05.125Z,40.07
2019-02-27T17:30:37.716Z,41.14
2019-02-27T17:33:05.407Z,40.22
2019-02-27T17:35:31.547Z,42.46
2019-02-27T17:37:58.351Z,38.22
2019-02-27T17:40:24.724Z,38.37
2019-02-27T17:42:54.527Z,37.70
2019-02-27T17:45:25.113Z,38.15
2019-02-27T17:47:51.427Z,38.35
2019-02-27T17:50:18.270Z,38.54
2019-02-27T17:52:48.718Z,39.77
2019-02-27T17:55:17.018Z,40.18
2019-02-27T17:57:43.692Z,40.75
2019-02-27T18:00:20.275Z,40.44
2019-02-27T18:02:48.924Z,40.54
2019-02-27T18:05:15.154Z,41.37
2019-02-27T18:07:42.749Z,42.48
2019-02-27T18:10:10.762Z,45.33
2019-02-27T18:12:36.902Z,45.03
2019-02-27T18:15:06.988Z,46.15
2019-02-27T18:17:34.852Z,47.17
2019-02-27T18:20:03.047Z,47.67
2019-02-27T18:22:29.710Z,48.22
2019-02-27T18:24:55.900Z,49.93
2019-02-27T18:27:24.707Z,51.41
2019-02-27T18:29:50.055Z,52.67
2019-02-27T18:32:16.250Z,51.06
2019-02-27T18:34:42.524Z,52.83
2019-02-27T18:37:08.740Z,52.47
2019-02-27T18:39:36.532Z,52.50
2019-02-27T18:42:03.180Z,52.12
2019-02-27T18:44:29.504Z,54.40
2019-02-27T18:46:56.221Z,54.31
2019-02-27T18:49:23.760Z,53.80
2019-02-27T18:51:51.470Z,53.93
2019-02-27T18:54:21.788Z,53.96
2019-02-27T18:56:45.643Z,54.71
2019-02-27T18:59:11.976Z,55.83
2019-02-27T19:01:41.351Z,54.10
2019-02-27T19:04:06.631Z,54.30
2019-02-27T19:06:33.572Z,53.96
2019-02-27T19:09:00.733Z,55.56
2019-02-27T19:11:26.899Z,54.70
2019-02-27T19:13:53.063Z,55.44
2019-02-27T19:16:20.718Z,54.31
2019-02-27T19:18:47.143Z,53.54
2019-02-27T19:21:13.362Z,49.98
2019-02-27T19:23:42.871Z,52.61
2019-02-27T19:26:09.422Z,49.81
2019-02-27T19:28:36.340Z,48.39
2019-02-27T19:31:02.752Z,48.15
2019-02-27T19:33:32.508Z,47.27
2019-02-27T19:35:58.961Z,44.21
2019-02-27T19:38:25.144Z,45.47
2019-02-27T19:40:53.130Z,44.29
2019-02-27T19:43:20.987Z,48.97
2019-02-27T19:45:48.377Z,44.43
2019-02-27T19:48:14.537Z,43.31
2019-02-27T19:50:45.334Z,44.04
2019-02-27T19:53:08.870Z,45.07
2019-02-27T19:55:34.960Z,43.31
2019-02-27T19:58:01.087Z,44.56
2019-02-27T20:00:34.938Z,44.01
2019-02-27T20:03:01.503Z,47.20
2019-02-27T20:05:29.021Z,45.46
2019-02-27T20:07:55.372Z,43.51
2019-02-27T20:10:21.513Z,43.53
2019-02-27T20:12:52.766Z,45.27
2019-02-27T20:15:20.616Z,44.29
2019-02-27T20:17:46.989Z,43.27
2019-02-27T20:20:14.501Z,42.65
2019-02-27T20:22:41.299Z,42.19
2019-02-27T20:25:10.277Z,42.87
2019-02-27T20:27:36.579Z,40.94
2019-02-27T20:30:06.028Z,42.76
2019-02-27T20:32:32.119Z,44.54
2019-02-27T20:34:59.793Z,45.23
2019-02-27T20:37:26.018Z,46.19
2019-02-27T20:39:52.057Z,44.64
2019-02-27T20:42:38.045Z,44.06
2019-02-27T20:45:10.495Z,43.38
2019-02-27T20:47:36.647Z,43.67
2019-02-27T20:50:06.355Z,44.33
2019-02-27T20:52:32.479Z,46.35
2019-02-27T20:54:59.886Z,45.59
2019-02-27T20:57:27.565Z,45.49
2019-02-27T21:00:00.750Z,45.36
2019-02-27T21:02:23.863Z,43.60
2019-02-27T21:04:49.914Z,47.34
2019-02-27T21:07:22.198Z,44.75
2019-02-27T21:09:45.146Z,45.98
2019-02-27T21:12:11.994Z,44.62
2019-02-27T21:14:38.216Z,46.84
2019-02-27T21:17:04.556Z,45.50
2019-02-27T21:19:30.706Z,46.79
2019-02-27T21:21:56.855Z,47.17
2019-02-27T21:24:22.883Z,45.25
2019-02-27T21:26:48.916Z,45.54
2019-02-27T21:29:15.134Z,45.30
2019-02-27T21:31:41.233Z,44.79
2019-02-27T21:34:07.314Z,47.43
2019-02-27T21:36:36.493Z,46.81
2019-02-27T21:39:02.757Z,46.62
2019-02-27T21:41:28.877Z,47.54
2019-02-27T21:43:56.654Z,50.25
2019-02-27T21:46:22.950Z,47.07
2019-02-27T21:48:49.074Z,47.55
2019-02-27T21:51:15.201Z,47.67
2019-02-27T21:53:41.305Z,48.36
2019-02-27T21:56:07.363Z,49.58
2019-02-27T21:58:33.398Z,48.87
2019-02-27T22:00:59.914Z,49.01
2019-02-27T22:03:25.935Z,49.97
2019-02-27T22:05:52.994Z,50.66
2019-02-27T22:08:19.913Z,49.52
2019-02-27T22:10:45.952Z,50.16
2019-02-27T22:13:11.995Z,51.38
2019-02-27T22:15:38.066Z,52.01
2019-02-27T22:18:04.116Z,50.89
2019-02-27T22:20:30.164Z,52.10
2019-02-27T22:22:56.428Z,52.76
2019-02-27T22:25:22.646Z,52.33
2019-02-27T22:27:48.950Z,51.70
2019-02-27T22:30:16.843Z,52.57
2019-02-27T22:32:47.747Z,51.26
2019-02-27T22:35:11.216Z,55.72
2019-02-27T22:37:37.220Z,51.03
2019-02-27T22:40:07.494Z,52.33
2019-02-27T22:42:33.681Z,54.08
2019-02-27T22:45:00.671Z,52.03
2019-02-27T22:47:27.755Z,52.19
2019-02-27T22:49:54.204Z,53.29
2019-02-27T22:52:20.893Z,55.34
2019-02-27T22:54:47.146Z,54.21
2019-02-27T22:57:13.326Z,55.52
2019-02-27T22:59:39.479Z,53.34
2019-02-27T23:02:05.842Z,53.24
2019-02-27T23:04:32.802Z,53.93
2019-02-27T23:06:59.308Z,52.90
2019-02-27T23:09:25.899Z,53.72
2019-02-27T23:11:54.688Z,53.51
2019-02-27T23:14:20.979Z,54.36
2019-02-27T23:16:47.045Z,53.37
2019-02-27T23:19:13.202Z,54.00
2019-02-27T23:21:39.602Z,54.47
2019-02-27T23:24:07.108Z,55.47
2019-02-27T23:26:33.675Z,56.58
2019-02-27T23:28:59.816Z,54.72
2019-02-27T23:31:27.493Z,56.63
2019-02-27T23:33:53.632Z,55.00
2019-02-27T23:36:22.120Z,57.82
2019-02-27T23:38:47.990Z,58.19
2019-02-27T23:41:14.143Z,59.44
2019-02-27T23:43:40.304Z,57.49
2019-02-27T23:46:06.456Z,57.64
2019-02-27T23:48:35.894Z,57.37
2019-02-27T23:51:00.599Z,57.92
2019-02-27T23:53:27.866Z,58.14
2019-02-27T23:55:54.045Z,58.96
2019-02-27T23:58:20.438Z,58.36
